Time;durP1;ratioP1;P1;durP2;ratioP2;P2;SDS_P1;SDS_P2;PMS_P1;PMS_P2;Temp;Humidity;BMP_temperature;BMP_pressure;BME280_temperature;BME280_humidity;BME280_pressure;Samples;Min_cycle;Max_cycle;Signal;HPM_P1;HPM_P2
2023/09/05 00:01:50;;;;;;;9.63;2.55;;;23.30;92.50;;;;;;4267378;27;20154;-57
2023/09/05 00:03:53;;;;;;;6.47;2.55;;;23.30;92.50;;;;;;4267270;27;20081;-57
2023/09/05 00:05:59;;;;;;;4.88;2.45;;;23.30;92.50;;;;;;4265842;27;20047;-58
2023/09/05 00:08:01;;;;;;;6.03;3.05;;;23.30;92.60;;;;;;4267106;27;20039;-59
2023/09/05 00:10:04;;;;;;;4.97;2.80;;;23.30;92.60;;;;;;4267138;27;20447;-58
2023/09/05 00:12:07;;;;;;;7.35;2.80;;;23.30;92.50;;;;;;4248609;27;20066;-58
2023/09/05 00:14:10;;;;;;;6.22;2.70;;;23.30;92.50;;;;;;4267110;27;20043;-57
2023/09/05 00:16:12;;;;;;;5.65;2.60;;;23.30;92.80;;;;;;4266028;27;20084;-58
2023/09/05 00:18:16;;;;;;;5.95;2.78;;;23.30;92.60;;;;;;4267295;27;20441;-59
2023/09/05 00:20:19;;;;;;;6.32;3.15;;;23.40;92.60;;;;;;4266889;27;20556;-58
2023/09/05 00:22:22;;;;;;;3.58;2.42;;;23.30;92.50;;;;;;4266755;27;20047;-58
2023/09/05 00:24:27;;;;;;;7.28;2.50;;;23.30;92.60;;;;;;4267204;27;20087;-58
2023/09/05 00:26:29;;;;;;;6.78;2.65;;;23.30;92.90;;;;;;4266165;27;20046;-57
2023/09/05 00:28:33;;;;;;;6.68;2.58;;;23.30;92.60;;;;;;4266880;27;20053;-57
2023/09/05 00:30:35;;;;;;;4.13;2.80;;;23.20;92.60;;;;;;4266866;27;20043;-57
2023/09/05 00:32:40;;;;;;;6.32;2.80;;;23.20;92.60;;;;;;4267041;27;20103;-58
2023/09/05 00:34:44;;;;;;;4.30;2.70;;;23.20;92.70;;;;;;4266622;27;20094;-58
2023/09/05 00:36:52;;;;;;;5.88;3.20;;;23.20;92.60;;;;;;4265815;27;20126;-58
2023/09/05 00:38:54;;;;;;;5.22;3.13;;;23.20;92.70;;;;;;4266479;27;20055;-58
2023/09/05 00:40:56;;;;;;;3.90;2.80;;;23.10;92.80;;;;;;4266649;27;20077;-58
2023/09/05 00:42:58;;;;;;;4.93;2.58;;;23.10;92.90;;;;;;4266839;27;20050;-58
2023/09/05 00:45:01;;;;;;;3.05;2.40;;;23.10;92.80;;;;;;4266324;27;20126;-59
2023/09/05 00:47:04;;;;;;;6.30;2.53;;;23.10;92.90;;;;;;4265487;27;20523;-57
2023/09/05 00:49:06;;;;;;;5.78;2.50;;;23.10;92.90;;;;;;4266502;27;20072;-57
2023/09/05 00:51:09;;;;;;;5.25;2.70;;;23.00;92.90;;;;;;4266163;27;20100;-57
2023/09/05 00:53:12;;;;;;;4.72;2.33;;;23.00;92.90;;;;;;4266630;27;20122;-58
2023/09/05 00:55:14;;;;;;;11.75;2.70;;;22.90;93.00;;;;;;4267118;27;20099;-58
2023/09/05 00:57:19;;;;;;;5.30;2.83;;;22.90;93.00;;;;;;4266097;27;20047;-60
2023/09/05 00:59:21;;;;;;;;;;;22.80;93.10;;;;;;4266539;27;20093;-58
2023/09/05 01:01:23;;;;;;;3.85;2.80;;;22.70;93.30;;;;;;4266558;27;20009;-57
2023/09/05 01:03:25;;;;;;;8.00;2.42;;;22.70;93.30;;;;;;4248021;27;20130;-58
2023/09/05 01:05:33;;;;;;;4.03;2.35;;;22.70;93.40;;;;;;4265534;27;20050;-56
2023/09/05 01:07:50;;;;;;;11.65;2.40;;;22.60;93.30;;;;;;4265962;27;20042;-56
2023/09/05 01:09:57;;;;;;;5.40;2.58;;;22.70;93.40;;;;;;4266358;27;20084;-56
2023/09/05 01:12:01;;;;;;;5.93;2.75;;;22.60;93.40;;;;;;4266372;27;20080;-58
2023/09/05 01:14:03;;;;;;;6.30;2.70;;;22.60;93.40;;;;;;4266065;27;20070;-58
2023/09/05 01:16:05;;;;;;;9.35;2.55;;;22.50;93.50;;;;;;4264959;27;20365;-57
2023/09/05 01:18:07;;;;;;;4.40;3.17;;;22.50;93.60;;;;;;4266026;27;20129;-58
2023/09/05 01:20:11;;;;;;;4.72;2.78;;;22.50;93.60;;;;;;4265735;27;20039;-58
2023/09/05 01:22:21;;;;;;;3.88;2.60;;;22.60;93.40;;;;;;4265938;27;20472;-59
2023/09/05 01:24:25;;;;;;;6.13;3.28;;;22.50;93.50;;;;;;4266118;27;20396;-58
2023/09/05 01:26:28;;;;;;;7.15;2.78;;;22.50;93.60;;;;;;4264965;27;20133;-56
2023/09/05 01:28:30;;;;;;;6.32;2.53;;;22.40;93.60;;;;;;4265988;27;20522;-58
2023/09/05 01:30:33;;;;;;;4.88;3.30;;;22.40;93.50;;;;;;4265708;27;20050;-57
2023/09/05 01:32:39;;;;;;;7.53;2.83;;;22.40;93.60;;;;;;4265807;27;20054;-58
2023/09/05 01:34:42;;;;;;;7.35;2.80;;;22.40;93.50;;;;;;4265416;27;20042;-58
2023/09/05 01:36:44;;;;;;;8.55;2.55;;;22.30;93.60;;;;;;4264612;27;20118;-57
2023/09/05 01:38:46;;;;;;;7.22;3.00;;;22.40;93.60;;;;;;4265889;27;20043;-58
2023/09/05 01:40:49;;;;;;;7.40;2.70;;;22.30;93.60;;;;;;4265718;27;20038;-58
2023/09/05 01:42:51;;;;;;;7.00;2.88;;;22.30;93.50;;;;;;4265755;27;20133;-58
2023/09/05 01:44:54;;;;;;;7.57;2.42;;;22.30;93.50;;;;;;4265658;27;20043;-58
2023/09/05 01:46:56;;;;;;;4.57;2.60;;;22.30;93.50;;;;;;4264415;27;20038;-58
2023/09/05 01:48:58;;;;;;;3.47;2.67;;;22.30;93.60;;;;;;4265410;27;20066;-58
2023/09/05 01:51:00;;;;;;;5.00;2.70;;;22.30;93.60;;;;;;4265795;27;20122;-58
2023/09/05 01:53:02;;;;;;;6.43;2.88;;;22.30;93.60;;;;;;4265841;27;20130;-58
2023/09/05 01:55:05;;;;;;;11.13;3.15;;;22.30;93.60;;;;;;4265828;27;20134;-58
2023/09/05 01:57:09;;;;;;;6.03;3.05;;;22.20;93.70;;;;;;4264279;27;20496;-58
2023/09/05 01:59:11;;;;;;;7.78;2.78;;;22.10;93.80;;;;;;4265317;27;20411;-58
2023/09/05 02:01:13;;;;;;;3.38;2.90;;;22.10;93.70;;;;;;4265523;27;20053;-64
2023/09/05 02:03:16;;;;;;;5.25;3.30;;;22.10;93.70;;;;;;4265388;27;20049;-58
2023/09/05 02:05:18;;;;;;;4.55;2.83;;;22.10;93.80;;;;;;4264906;27;20054;-58
2023/09/05 02:07:20;;;;;;;5.85;2.80;;;22.10;93.70;;;;;;4264132;27;20092;-59
2023/09/05 02:09:23;;;;;;;5.68;3.20;;;22.10;93.70;;;;;;4265385;27;20066;-58
2023/09/05 02:11:25;;;;;;;6.35;3.15;;;22.10;93.80;;;;;;4264352;27;20047;-58
2023/09/05 02:13:29;;;;;;;6.68;2.92;;;22.00;93.90;;;;;;4265221;27;20114;-59
2023/09/05 02:15:31;;;;;;;2.97;2.50;;;22.00;93.90;;;;;;4265414;27;20062;-59
2023/09/05 02:17:35;;;;;;;6.25;2.85;;;22.00;93.90;;;;;;4264548;27;20050;-59
2023/09/05 02:19:37;;;;;;;7.30;2.97;;;22.00;93.90;;;;;;4265507;27;20449;-58
2023/09/05 02:21:39;;;;;;;6.07;2.92;;;21.90;93.90;;;;;;4265439;27;20066;-61
2023/09/05 02:23:42;;;;;;;4.75;2.70;;;21.90;93.90;;;;;;4265091;27;20118;-59
2023/09/05 02:25:54;;;;;;;6.57;2.63;;;21.90;93.90;;;;;;4264139;27;20111;-58
2023/09/05 02:27:56;;;;;;;6.07;3.13;;;21.80;94.00;;;;;;4246443;27;20438;-59
2023/09/05 02:30:01;;;;;;;6.55;3.08;;;21.80;94.00;;;;;;4265312;27;20047;-58
2023/09/05 02:32:03;;;;;;;;;;;21.80;94.10;;;;;;4265697;27;20053;-57
2023/09/05 02:34:05;;;;;;;3.03;2.45;;;21.80;94.10;;;;;;4264729;27;20304;-58
2023/09/05 02:36:09;;;;;;;8.23;3.20;;;21.80;94.10;;;;;;4263856;27;20478;-58
2023/09/05 02:38:13;;;;;;;9.80;3.00;;;21.70;94.10;;;;;;4264972;27;20524;-63
2023/09/05 02:40:15;;;;;;;5.63;3.08;;;21.70;94.10;;;;;;4266152;27;20442;-60
2023/09/05 02:42:17;;;;;;;5.25;2.70;;;21.60;94.20;;;;;;4265152;27;20051;-59
2023/09/05 02:44:19;;;;;;;7.15;3.17;;;21.60;94.30;;;;;;4265019;27;20047;-59
2023/09/05 02:46:22;;;;;;;3.92;2.97;;;21.60;94.30;;;;;;4245522;27;20047;-58
2023/09/05 02:48:24;;;;;;;5.88;2.95;;;21.60;94.30;;;;;;4264283;27;20051;-59
2023/09/05 02:50:26;;;;;;;5.88;3.15;;;21.50;94.30;;;;;;4264762;27;20129;-57
2023/09/05 02:52:29;;;;;;;6.05;3.15;;;21.50;94.40;;;;;;4264671;27;20045;-58
2023/09/05 02:54:46;;;;;;;7.45;3.30;;;21.50;94.30;;;;;;4264613;27;20100;-56
2023/09/05 02:56:49;;;;;;;4.40;3.20;;;21.50;94.40;;;;;;4263466;27;20049;-56
2023/09/05 02:58:51;;;;;;;6.65;3.25;;;21.50;94.40;;;;;;4265065;27;20043;-56
2023/09/05 03:00:58;;;;;;;3.17;2.63;;;21.40;94.40;;;;;;4264536;27;20081;-56
2023/09/05 03:03:01;;;;;;;6.47;3.35;;;21.50;94.40;;;;;;4263978;27;20049;-56
2023/09/05 03:05:05;;;;;;;7.95;3.00;;;21.50;94.40;;;;;;4264536;27;20141;-56
2023/09/05 03:07:07;;;;;;;3.87;2.97;;;21.40;94.40;;;;;;4263865;27;20043;-55
2023/09/05 03:09:10;;;;;;;4.65;2.97;;;21.40;94.50;;;;;;4246413;27;20054;-56
2023/09/05 03:11:15;;;;;;;9.18;3.03;;;21.40;94.50;;;;;;4264593;27;20126;-56
2023/09/05 03:13:16;;;;;;;;;;;21.40;94.50;;;;;;4264895;27;20035;-56
2023/09/05 03:15:20;;;;;;;3.08;2.78;;;21.30;94.60;;;;;;4264636;27;19922;-56
2023/09/05 03:17:23;;;;;;;5.13;3.15;;;21.30;94.60;;;;;;4263117;27;20043;-56
2023/09/05 03:19:26;;;;;;;5.75;3.15;;;21.30;94.70;;;;;;4263859;27;20536;-56
2023/09/05 03:21:28;;;;;;;5.07;3.17;;;21.30;94.70;;;;;;4265188;27;20345;-56
2023/09/05 03:23:30;;;;;;;4.22;2.97;;;21.30;94.70;;;;;;4268095;27;20460;-59
2023/09/05 03:25:32;;;;;;;7.72;2.75;;;21.20;94.80;;;;;;4268020;27;20070;-59
2023/09/05 03:27:34;;;;;;;6.50;2.80;;;21.10;94.90;;;;;;4266931;27;20053;-58
2023/09/05 03:29:37;;;;;;;8.32;3.35;;;21.10;94.80;;;;;;4267772;27;20047;-57
2023/09/05 03:31:39;;;;;;;4.63;3.10;;;21.10;94.80;;;;;;4267754;27;20118;-56
2023/09/05 03:33:42;;;;;;;7.53;3.17;;;21.10;94.90;;;;;;4267638;27;20074;-55
2023/09/05 03:35:45;;;;;;;3.75;3.28;;;21.10;94.90;;;;;;4249406;27;20054;-55
2023/09/05 03:37:47;;;;;;;7.93;3.17;;;21.10;94.90;;;;;;4266794;27;20074;-55
2023/09/05 03:39:49;;;;;;;6.75;3.40;;;21.00;94.90;;;;;;4267735;27;20050;-55
2023/09/05 03:41:51;;;;;;;4.60;3.03;;;21.00;95.00;;;;;;4267942;27;20066;-59
2023/09/05 03:43:54;;;;;;;6.70;3.30;;;21.00;95.00;;;;;;4267724;27;20051;-58
2023/09/05 03:45:56;;;;;;;6.05;3.10;;;21.00;95.00;;;;;;4266963;27;20114;-59
2023/09/05 03:47:58;;;;;;;6.30;3.35;;;21.00;95.00;;;;;;4266994;27;20130;-59
2023/09/05 03:50:04;;;;;;;7.15;3.50;;;21.00;95.00;;;;;;4267907;27;20067;-58
2023/09/05 03:52:07;;;;;;;4.97;3.08;;;20.90;95.00;;;;;;4249270;27;20500;-64
2023/09/05 03:54:12;;;;;;;7.55;3.13;;;21.00;95.00;;;;;;4267723;27;20122;-58
2023/09/05 03:56:14;;;;;;;;;;;21.00;95.10;;;;;;4267299;27;20049;-57
2023/09/05 03:58:16;;;;;;;6.20;3.28;;;20.90;95.10;;;;;;4267312;27;19937;-56
2023/09/05 04:00:19;;;;;;;6.60;3.35;;;20.80;95.10;;;;;;4267237;27;20095;-56
2023/09/05 04:02:21;;;;;;;5.90;3.05;;;20.80;95.20;;;;;;4267343;27;20039;-56
2023/09/05 04:04:23;;;;;;;8.23;3.58;;;20.80;95.30;;;;;;4267435;27;20070;-56
2023/09/05 04:06:25;;;;;;;6.75;3.20;;;20.80;95.20;;;;;;4266630;27;20050;-62
2023/09/05 04:08:28;;;;;;;6.90;3.70;;;20.70;95.30;;;;;;4267171;27;20046;-58
2023/09/05 04:10:30;;;;;;;9.38;3.45;;;20.70;95.30;;;;;;4249208;27;20039;-58
2023/09/05 04:12:32;;;;;;;8.32;3.30;;;20.70;95.30;;;;;;4267213;27;20336;-58
2023/09/05 04:14:35;;;;;;;8.75;2.78;;;20.70;95.30;;;;;;4267240;27;20046;-58
2023/09/05 04:16:36;;;;;;;6.68;3.58;;;20.70;95.40;;;;;;4266463;27;20490;-58
2023/09/05 04:18:39;;;;;;;6.55;3.00;;;20.70;95.40;;;;;;4267122;27;20051;-58
2023/09/05 04:20:40;;;;;;;8.10;3.65;;;20.70;95.40;;;;;;4266723;27;20069;-58
2023/09/05 04:22:43;;;;;;;7.45;3.15;;;20.70;95.40;;;;;;4266873;27;20111;-60
2023/09/05 04:24:52;;;;;;;7.40;3.25;;;20.60;95.40;;;;;;4268169;27;20051;-59
2023/09/05 04:26:55;;;;;;;5.93;3.10;;;20.70;95.50;;;;;;4247951;27;20047;-59
2023/09/05 04:28:57;;;;;;;6.88;3.33;;;20.70;95.50;;;;;;4266822;27;20058;-58
2023/09/05 04:31:04;;;;;;;9.77;3.53;;;20.70;95.50;;;;;;4267210;27;20062;-59
2023/09/05 04:33:10;;;;;;;5.13;2.90;;;20.70;95.40;;;;;;4265949;27;20471;-59
2023/09/05 04:35:12;;;;;;;4.65;3.30;;;20.70;95.40;;;;;;4266726;27;20039;-59
2023/09/05 04:37:17;;;;;;;4.85;3.25;;;20.70;95.70;;;;;;4265870;27;20092;-58
2023/09/05 04:39:19;;;;;;;8.07;3.53;;;20.60;95.70;;;;;;4266902;27;20050;-59
2023/09/05 04:41:22;;;;;;;6.20;3.28;;;20.70;95.80;;;;;;4266640;27;20411;-58
2023/09/05 04:43:26;;;;;;;7.53;3.80;;;20.70;95.70;;;;;;4248209;27;20100;-59
2023/09/05 04:45:28;;;;;;;11.43;3.85;;;20.60;95.80;;;;;;4249686;27;20046;-58
2023/09/05 04:47:33;;;;;;;4.13;3.22;;;20.60;95.70;;;;;;4248288;27;20140;-58
2023/09/05 04:49:36;;;;;;;5.10;2.75;;;20.70;95.80;;;;;;4231519;28;20039;-58
2023/09/05 04:51:38;;;;;;;5.82;3.55;;;20.70;95.70;;;;;;4249477;27;20108;-58
2023/09/05 04:53:40;;;;;;;6.93;3.33;;;20.70;95.80;;;;;;4249621;27;20061;-58
2023/09/05 04:55:43;;;;;;;6.70;3.35;;;20.70;96.00;;;;;;4249371;27;20046;-58
2023/09/05 04:57:48;;;;;;;6.77;3.17;;;20.70;95.90;;;;;;4248063;27;20055;-58
2023/09/05 04:59:56;;;;;;;3.90;3.00;;;20.70;96.00;;;;;;4249409;27;20440;-57
2023/09/05 05:01:58;;;;;;;6.85;3.25;;;20.70;95.90;;;;;;4249405;27;20186;-58
2023/09/05 05:04:01;;;;;;;7.45;3.58;;;20.70;95.90;;;;;;4259983;27;20078;-58
2023/09/05 05:06:03;;;;;;;4.93;3.08;;;20.70;95.70;;;;;;4266534;27;20046;-57
2023/09/05 05:08:06;;;;;;;5.47;3.22;;;20.70;95.70;;;;;;4265581;27;20043;-56
2023/09/05 05:10:08;;;;;;;5.47;3.47;;;20.70;95.90;;;;;;4266453;27;20134;-58
2023/09/05 05:12:10;;;;;;;5.97;3.50;;;20.70;96.00;;;;;;4266026;27;20072;-58
2023/09/05 05:14:14;;;;;;;6.78;3.78;;;20.70;96.10;;;;;;4266172;27;20122;-58
2023/09/05 05:16:16;;;;;;;8.52;3.38;;;20.60;96.00;;;;;;4265691;27;20392;-59
2023/09/05 05:18:18;;;;;;;7.78;3.28;;;20.60;96.10;;;;;;4265786;27;20095;-58
2023/09/05 05:20:20;;;;;;;8.48;3.58;;;20.70;96.00;;;;;;4266234;27;20043;-59
2023/09/05 05:22:22;;;;;;;9.13;4.15;;;20.70;96.20;;;;;;4266060;27;20043;-59
2023/09/05 05:24:24;;;;;;;7.50;3.88;;;20.70;96.00;;;;;;4266018;27;20100;-59
2023/09/05 05:26:28;;;;;;;6.72;3.40;;;20.70;96.20;;;;;;4265128;27;20050;-59
2023/09/05 05:28:30;;;;;;;12.90;3.90;;;20.70;96.00;;;;;;4266153;27;20073;-58
2023/09/05 05:30:36;;;;;;;8.07;3.75;;;20.70;95.90;;;;;;4266474;27;20400;-59
2023/09/05 05:32:38;;;;;;;8.77;3.72;;;20.80;96.00;;;;;;4266129;27;20126;-58
2023/09/05 05:34:40;;;;;;;11.23;3.83;;;20.80;96.10;;;;;;4266444;27;20185;-59
2023/09/05 05:36:42;;;;;;;9.32;3.80;;;20.90;96.00;;;;;;4265093;27;20510;-59
2023/09/05 05:38:44;;;;;;;7.50;3.53;;;20.90;96.20;;;;;;4247857;27;20039;-61
2023/09/05 05:40:47;;;;;;;10.98;4.22;;;20.90;96.10;;;;;;4266607;27;20126;-57
2023/09/05 05:42:49;;;;;;;8.45;3.72;;;20.90;96.10;;;;;;4265724;27;20134;-57
2023/09/05 05:44:51;;;;;;;14.80;4.00;;;20.90;96.20;;;;;;4265794;27;20046;-58
2023/09/05 05:46:56;;;;;;;8.75;3.88;;;20.90;96.20;;;;;;4264870;27;20042;-59
2023/09/05 05:48:59;;;;;;;7.68;4.03;;;21.00;96.10;;;;;;4265584;27;20072;-59
2023/09/05 05:51:03;;;;;;;18.27;4.72;;;21.00;96.10;;;;;;4265727;27;20487;-59
2023/09/05 05:53:05;;;;;;;11.18;4.78;;;21.10;96.00;;;;;;4266033;27;20055;-59
2023/09/05 05:55:07;;;;;;;21.58;4.53;;;21.10;95.70;;;;;;4265755;27;20058;-59
2023/09/05 05:57:09;;;;;;;8.68;4.30;;;21.10;95.70;;;;;;4264481;27;20046;-62
2023/09/05 05:59:11;;;;;;;12.80;3.85;;;21.20;95.80;;;;;;4265459;27;20125;-57
2023/09/05 06:01:14;;;;;;;15.13;4.57;;;21.20;95.90;;;;;;4265244;27;20070;-57
2023/09/05 06:03:17;;;;;;;25.52;4.88;;;21.30;95.40;;;;;;4246802;27;20476;-60
2023/09/05 06:05:19;;;;;;;9.00;4.25;;;21.20;95.30;;;;;;4265466;27;20107;-59
2023/09/05 06:07:22;;;;;;;8.40;3.92;;;21.30;95.50;;;;;;4264371;27;20116;-60
2023/09/05 06:09:26;;;;;;;13.88;4.32;;;21.40;95.20;;;;;;4248210;27;20054;-61
2023/09/05 06:11:28;;;;;;;19.70;4.85;;;21.40;95.20;;;;;;4266097;27;20506;-59
2023/09/05 06:13:30;;;;;;;21.50;5.72;;;21.40;95.10;;;;;;4265675;27;20049;-58
2023/09/05 06:15:33;;;;;;;14.82;5.22;;;21.30;95.20;;;;;;4265420;27;20046;-57
2023/09/05 06:17:35;;;;;;;14.63;4.65;;;21.40;95.10;;;;;;4264291;27;20531;-59
2023/09/05 06:19:38;;;;;;;11.35;4.53;;;21.40;95.10;;;;;;4265067;27;20138;-60
2023/09/05 06:21:41;;;;;;;15.57;4.65;;;21.50;95.00;;;;;;4265388;27;20047;-58
2023/09/05 06:23:43;;;;;;;12.35;4.78;;;21.40;95.00;;;;;;4264949;27;20042;-57
2023/09/05 06:25:45;;;;;;;16.27;4.68;;;21.50;95.00;;;;;;4264882;27;20043;-59
2023/09/05 06:27:47;;;;;;;16.02;4.53;;;21.50;95.00;;;;;;4264201;27;20054;-60
2023/09/05 06:29:49;;;;;;;11.85;4.72;;;21.60;95.00;;;;;;4265008;27;20498;-58
2023/09/05 06:31:51;;;;;;;12.52;4.18;;;21.60;94.90;;;;;;4265153;27;20053;-57
2023/09/05 06:33:53;;;;;;;12.82;4.47;;;21.70;94.90;;;;;;4265036;27;20047;-58
2023/09/05 06:35:57;;;;;;;11.65;4.53;;;21.70;94.80;;;;;;4264857;27;20046;-58
2023/09/05 06:37:59;;;;;;;13.27;4.30;;;21.70;94.80;;;;;;4264062;27;20043;-57
2023/09/05 06:40:03;;;;;;;8.57;4.35;;;21.80;94.90;;;;;;4264466;27;20043;-57
2023/09/05 06:42:08;;;;;;;8.50;4.00;;;21.80;95.00;;;;;;4265294;27;20046;-60
2023/09/05 06:44:10;;;;;;;20.58;5.95;;;21.80;95.00;;;;;;4264783;27;20039;-57
2023/09/05 06:46:12;;;;;;;22.23;6.15;;;21.80;94.80;;;;;;4265089;27;20066;-58
2023/09/05 06:48:14;;;;;;;23.38;5.80;;;21.90;94.60;;;;;;4263684;27;20054;-58
2023/09/05 06:50:16;;;;;;;16.75;4.90;;;21.90;94.80;;;;;;4264716;27;20053;-57
2023/09/05 06:52:20;;;;;;;12.40;4.32;;;21.90;94.60;;;;;;4265084;27;20051;-60
2023/09/05 06:54:22;;;;;;;19.33;5.13;;;21.90;94.60;;;;;;4264190;27;20054;-58
2023/09/05 06:56:24;;;;;;;20.02;5.43;;;21.90;94.50;;;;;;4264469;27;20051;-58
2023/09/05 06:58:27;;;;;;;20.85;5.28;;;21.90;94.40;;;;;;4263834;27;20074;-58
2023/09/05 07:00:30;;;;;;;16.17;4.85;;;22.00;94.50;;;;;;4264830;27;20043;-58
2023/09/05 07:02:32;;;;;;;13.48;5.10;;;22.00;94.40;;;;;;4264599;27;20077;-57
2023/09/05 07:04:34;;;;;;;11.30;4.10;;;22.10;94.40;;;;;;4264626;27;20047;-57
2023/09/05 07:06:37;;;;;;;17.33;4.97;;;22.10;94.50;;;;;;4264188;27;20095;-59
2023/09/05 07:08:41;;;;;;;18.35;4.22;;;22.10;94.40;;;;;;4263933;27;20377;-57
2023/09/05 07:10:43;;;;;;;20.17;4.70;;;22.20;94.40;;;;;;4264667;27;20476;-57
2023/09/05 07:12:45;;;;;;;19.48;5.32;;;22.20;94.40;;;;;;4264588;27;20138;-57
2023/09/05 07:14:47;;;;;;;19.75;4.68;;;22.30;94.60;;;;;;4264714;27;20047;-57
2023/09/05 07:16:49;;;;;;;19.27;5.22;;;22.30;94.30;;;;;;4263309;27;20226;-57
2023/09/05 07:18:53;;;;;;;18.25;5.05;;;22.40;94.20;;;;;;4264398;27;20038;-57
2023/09/05 07:20:55;;;;;;;11.80;4.43;;;22.40;94.10;;;;;;4264705;27;20115;-58
2023/09/05 07:22:57;;;;;;;22.25;5.50;;;22.40;94.10;;;;;;4264285;27;20450;-56
2023/09/05 07:25:01;;;;;;;17.58;5.18;;;22.50;94.10;;;;;;4245938;28;20118;-56
2023/09/05 07:27:04;;;;;;;10.63;4.10;;;22.50;94.00;;;;;;4263599;27;20041;-54
2023/09/05 07:29:08;;;;;;;14.50;4.80;;;22.60;94.10;;;;;;4264211;27;20043;-55
2023/09/05 07:31:12;;;;;;;8.50;3.90;;;22.60;94.10;;;;;;4264627;27;20468;-58
2023/09/05 07:33:15;;;;;;;15.43;4.18;;;22.70;94.20;;;;;;4264397;27;20047;-56
2023/09/05 07:35:17;;;;;;;8.63;3.63;;;22.80;94.10;;;;;;4264371;27;20051;-58
2023/09/05 07:37:19;;;;;;;17.05;4.10;;;22.90;93.90;;;;;;4263190;27;20502;-59
2023/09/05 07:39:22;;;;;;;9.68;3.75;;;23.00;93.80;;;;;;4264189;27;20047;-58
2023/09/05 07:41:26;;;;;;;12.30;4.15;;;23.10;93.80;;;;;;4264298;27;20061;-58
2023/09/05 07:43:28;;;;;;;10.30;4.50;;;23.20;93.80;;;;;;4264039;27;20055;-58
2023/09/05 07:45:32;;;;;;;13.07;4.22;;;23.30;93.50;;;;;;4245986;28;20047;-58
2023/09/05 07:47:34;;;;;;;18.05;4.68;;;23.40;93.50;;;;;;4262920;27;20051;-58
2023/09/05 07:49:36;;;;;;;10.95;3.97;;;23.40;93.50;;;;;;4264202;27;20050;-60
2023/09/05 07:51:39;;;;;;;12.02;3.47;;;23.50;93.40;;;;;;4264232;27;20429;-60
2023/09/05 07:53:47;;;;;;;8.18;3.40;;;23.60;93.20;;;;;;4264187;27;20043;-60
2023/09/05 07:55:49;;;;;;;9.38;3.03;;;23.80;93.20;;;;;;4264526;27;20389;-60
2023/09/05 07:57:53;;;;;;;6.78;3.33;;;23.90;93.30;;;;;;4263112;27;20559;-60
2023/09/05 07:59:55;;;;;;;10.10;2.90;;;24.00;92.70;;;;;;4264546;27;20047;-58
2023/09/05 08:01:57;;;;;;;9.13;2.97;;;24.00;92.70;;;;;;4264226;27;20126;-58
2023/09/05 08:03:59;;;;;;;6.82;3.22;;;24.00;92.60;;;;;;4263938;27;20070;-58
2023/09/05 08:06:03;;;;;;;6.50;3.05;;;24.00;92.70;;;;;;4263650;27;20042;-58
2023/09/05 08:08:05;;;;;;;8.55;3.35;;;24.10;92.70;;;;;;4263253;27;20117;-58
2023/09/05 08:10:08;;;;;;;8.00;2.72;;;24.20;92.70;;;;;;4267197;27;20440;-58
2023/09/05 08:12:10;;;;;;;4.47;3.25;;;24.30;92.70;;;;;;4267139;27;20069;-57
2023/09/05 08:14:13;;;;;;;7.32;3.53;;;24.40;92.60;;;;;;4267221;27;20047;-60
2023/09/05 08:16:16;;;;;;;7.15;3.15;;;24.50;92.50;;;;;;4267149;27;20042;-60
2023/09/05 08:18:18;;;;;;;11.25;3.25;;;24.60;92.50;;;;;;4266279;27;20155;-62
2023/09/05 08:20:21;;;;;;;9.77;3.40;;;24.70;92.40;;;;;;4267101;27;20101;-58
2023/09/05 08:22:24;;;;;;;8.23;3.25;;;24.70;92.20;;;;;;4266971;27;20042;-58
2023/09/05 08:24:26;;;;;;;7.07;3.15;;;24.70;91.90;;;;;;4267269;27;20047;-58
2023/09/05 08:26:28;;;;;;;9.00;3.13;;;24.70;92.10;;;;;;4248798;27;20077;-58
2023/09/05 08:28:32;;;;;;;8.27;3.00;;;24.80;92.10;;;;;;4266057;27;20412;-58
2023/09/05 08:30:36;;;;;;;6.75;3.00;;;24.90;91.80;;;;;;4267261;27;20049;-59
2023/09/05 08:32:41;;;;;;;7.05;3.58;;;24.90;91.90;;;;;;4267841;27;20461;-59
2023/09/05 08:34:43;;;;;;;8.98;3.33;;;24.90;91.70;;;;;;4266840;27;20043;-60
2023/09/05 08:36:45;;;;;;;11.70;3.15;;;25.00;91.90;;;;;;4266807;27;20062;-58
2023/09/05 08:38:47;;;;;;;7.20;3.53;;;25.00;91.50;;;;;;4266094;27;20047;-55
2023/09/05 08:40:50;;;;;;;10.55;5.00;;;25.10;91.80;;;;;;4267409;27;20092;-58
2023/09/05 08:42:54;;;;;;;7.93;3.47;;;25.10;91.60;;;;;;4266945;27;20057;-58
2023/09/05 08:44:58;;;;;;;7.40;3.47;;;25.10;91.80;;;;;;4266709;27;20043;-56
2023/09/05 08:47:02;;;;;;;10.32;3.47;;;25.20;91.80;;;;;;4247604;27;20069;-58
2023/09/05 08:49:05;;;;;;;7.25;3.15;;;25.30;91.70;;;;;;4266196;27;20047;-57
2023/09/05 08:51:12;;;;;;;14.70;3.50;;;25.40;91.60;;;;;;4266110;27;20480;-55
2023/09/05 08:53:15;;;;;;;11.18;3.40;;;25.40;91.50;;;;;;4266625;27;20135;-57
2023/09/05 08:55:18;;;;;;;7.82;3.33;;;25.50;91.30;;;;;;4266613;27;20043;-57
2023/09/05 08:57:21;;;;;;;10.18;3.42;;;25.60;91.30;;;;;;4247139;27;20043;-54
2023/09/05 08:59:25;;;;;;;13.43;3.58;;;25.60;91.40;;;;;;4266211;27;20039;-55
2023/09/05 09:01:29;;;;;;;6.10;3.45;;;25.60;91.30;;;;;;4266227;27;20046;-54
2023/09/05 09:03:35;;;;;;;;;;;25.70;91.20;;;;;;4266624;27;20038;-56
2023/09/05 09:05:38;;;;;;;12.70;3.67;;;25.80;91.00;;;;;;4265673;27;19929;-55
2023/09/05 09:07:40;;;;;;;9.43;3.40;;;25.80;91.20;;;;;;4265376;27;20085;-55
2023/09/05 09:09:42;;;;;;;13.20;3.97;;;25.90;91.30;;;;;;4266112;27;20145;-55
2023/09/05 09:11:59;;;;;;;11.88;3.70;;;26.00;91.20;;;;;;4247771;27;20043;-57
2023/09/05 09:14:01;;;;;;;10.20;3.35;;;26.00;91.00;;;;;;4266196;27;20472;-57
2023/09/05 09:16:04;;;;;;;9.27;3.58;;;26.00;91.00;;;;;;4265941;27;20407;-58
2023/09/05 09:18:11;;;;;;;13.13;3.35;;;26.00;91.20;;;;;;4265221;27;20066;-57
2023/09/05 09:20:16;;;;;;;9.80;3.78;;;26.10;91.00;;;;;;4265098;27;20122;-58
2023/09/05 09:22:23;;;;;;;9.43;3.70;;;26.20;90.90;;;;;;4265868;27;20147;-57
2023/09/05 09:24:32;;;;;;;11.82;4.18;;;26.30;90.90;;;;;;4265986;27;20179;-58
2023/09/05 09:26:35;;;;;;;7.10;3.45;;;26.30;90.70;;;;;;4265949;27;20043;-58
2023/09/05 09:28:37;;;;;;;16.80;3.85;;;26.40;90.80;;;;;;4264863;27;20091;-59
2023/09/05 09:30:39;;;;;;;10.13;4.10;;;26.50;90.80;;;;;;4265782;27;20049;-58
2023/09/05 09:32:49;;;;;;;12.25;3.72;;;26.60;90.80;;;;;;4265822;27;20042;-58
2023/09/05 09:34:51;;;;;;;8.98;4.28;;;26.60;90.60;;;;;;4265442;27;20053;-60
2023/09/05 09:36:55;;;;;;;8.50;3.53;;;26.60;90.50;;;;;;4265629;27;20055;-61
2023/09/05 09:38:57;;;;;;;11.10;4.00;;;26.70;90.50;;;;;;4264704;27;20099;-60
2023/09/05 09:41:01;;;;;;;12.57;3.78;;;26.70;90.50;;;;;;4265793;27;20074;-60
2023/09/05 09:43:03;;;;;;;13.30;3.95;;;26.80;90.50;;;;;;4265708;27;20039;-60
2023/09/05 09:45:07;;;;;;;8.82;3.70;;;26.80;90.30;;;;;;4251762;27;20055;-60
2023/09/05 09:47:10;;;;;;;17.70;3.80;;;26.80;90.00;;;;;;4247700;27;20078;-58
2023/09/05 09:49:12;;;;;;;11.43;4.15;;;26.80;90.30;;;;;;4248010;27;20126;-58
2023/09/05 09:51:18;;;;;;;7.22;3.45;;;26.90;90.30;;;;;;4230128;28;20109;-57
2023/09/05 09:53:35;;;;;;;10.23;3.53;;;26.90;90.40;;;;;;4248251;27;20081;-59
2023/09/05 09:55:42;;;;;;;9.70;4.00;;;27.00;90.30;;;;;;4248342;27;20124;-60
2023/09/05 09:57:56;;;;;;;11.57;4.30;;;27.00;90.20;;;;;;4247323;27;20047;-60
2023/09/05 10:00:03;;;;;;;11.05;3.78;;;27.10;90.30;;;;;;4247983;27;20054;-60
2023/09/05 10:02:07;;;;;;;11.23;3.75;;;27.10;89.90;;;;;;4247709;27;20047;-58
2023/09/05 10:04:16;;;;;;;9.50;3.80;;;27.20;90.20;;;;;;4260804;27;20046;-60
2023/09/05 10:06:20;;;;;;;6.60;3.72;;;27.30;90.30;;;;;;4265093;27;20247;-59
2023/09/05 10:08:24;;;;;;;14.17;4.10;;;27.30;90.10;;;;;;4264070;27;20090;-60
2023/09/05 10:10:28;;;;;;;10.30;4.25;;;27.40;90.10;;;;;;4265365;27;20438;-60
2023/09/05 10:12:31;;;;;;;10.20;3.93;;;27.40;90.00;;;;;;4265093;27;20043;-58
2023/09/05 10:14:35;;;;;;;13.40;3.55;;;27.50;89.90;;;;;;4265217;27;20780;-58
2023/09/05 10:16:39;;;;;;;10.00;3.80;;;27.60;89.90;;;;;;4264569;27;20053;-58
2023/09/05 10:18:43;;;;;;;10.40;3.83;;;27.60;89.70;;;;;;4245745;27;20148;-58
2023/09/05 10:20:48;;;;;;;13.75;4.50;;;27.60;89.20;;;;;;4265216;27;20103;-58
2023/09/05 10:22:53;;;;;;;10.30;3.75;;;27.70;89.10;;;;;;4265156;27;20070;-58
2023/09/05 10:24:56;;;;;;;14.13;3.78;;;27.70;89.30;;;;;;4265117;27;20099;-58
2023/09/05 10:26:59;;;;;;;9.02;3.70;;;27.80;88.80;;;;;;4265036;27;20134;-60
2023/09/05 10:29:30;;;;;;;13.18;4.22;;;27.80;89.00;;;;;;4263789;27;20130;-60
2023/09/05 10:31:32;;;;;;;10.45;4.25;;;27.90;88.30;;;;;;4264071;27;20081;-60
2023/09/05 10:33:36;;;;;;;12.93;3.95;;;27.90;88.40;;;;;;4264780;27;20042;-60
2023/09/05 10:35:44;;;;;;;8.52;4.05;;;28.00;87.90;;;;;;4265029;27;20057;-60
2023/09/05 10:37:51;;;;;;;12.50;4.35;;;28.00;88.20;;;;;;4263905;27;20038;-61
2023/09/05 10:39:55;;;;;;;12.38;4.00;;;28.10;88.00;;;;;;4264936;27;20536;-58
2023/09/05 10:41:59;;;;;;;8.85;3.78;;;28.20;87.70;;;;;;4264724;27;20043;-60